Time;durP1;ratioP1;P1;durP2;ratioP2;P2;SDS_P1;SDS_P2;PMS_P1;PMS_P2;Temp;Humidity;BMP_temperature;BMP_pressure;BME280_temperature;BME280_humidity;BME280_pressure;Samples;Min_cycle;Max_cycle;Signal;HPM_P1;HPM_P2
2022/06/17 00:01:34;;;;;;;5.20;4.80;;;19.30;99.90;;;;;;6259619;23;20138;-87
2022/06/17 00:03:59;;;;;;;5.73;4.73;;;19.30;99.90;;;;;;6259270;22;20451;-86
2022/06/17 00:06:30;;;;;;;7.60;5.57;;;19.20;99.90;;;;;;6258411;23;20153;-87
2022/06/17 00:08:56;;;;;;;6.93;5.23;;;19.20;99.90;;;;;;6260720;23;20127;-85
2022/06/17 00:11:26;;;;;;;5.83;5.20;;;19.10;99.90;;;;;;6259533;23;20379;-87
2022/06/17 00:13:51;;;;;;;7.40;5.80;;;19.10;99.90;;;;;;6259164;22;20449;-86
2022/06/17 00:16:19;;;;;;;5.37;4.87;;;19.00;99.90;;;;;;6233101;23;20381;-87
2022/06/17 00:18:45;;;;;;;5.73;5.10;;;19.00;99.90;;;;;;6259793;23;20153;-87
2022/06/17 00:21:18;;;;;;;6.67;5.13;;;19.00;99.90;;;;;;6258948;23;20414;-87
2022/06/17 00:23:43;;;;;;;6.40;5.67;;;19.00;99.90;;;;;;6259270;22;20143;-87
2022/06/17 00:26:10;;;;;;;5.10;4.40;;;19.00;99.90;;;;;;6259129;23;20854;-85
2022/06/17 00:28:36;;;;;;;5.60;5.10;;;18.90;99.90;;;;;;6259476;23;20182;-87
2022/06/17 00:31:01;;;;;;;6.53;4.60;;;18.90;99.90;;;;;;6259123;23;20381;-86
2022/06/17 00:33:27;;;;;;;5.80;5.20;;;18.90;99.90;;;;;;6259024;23;20202;-86
2022/06/17 00:35:54;;;;;;;9.87;5.00;;;18.90;99.90;;;;;;6258781;22;20172;-86
2022/06/17 00:38:28;;;;;;;5.47;4.97;;;18.90;99.90;;;;;;6258818;23;20182;-86
2022/06/17 00:40:55;;;;;;;10.37;5.07;;;18.90;99.90;;;;;;6259128;23;20357;-85
2022/06/17 00:43:28;;;;;;;5.23;4.23;;;18.80;99.90;;;;;;6259547;23;20374;-87
2022/06/17 00:46:20;;;;;;;5.63;5.10;;;18.80;99.90;;;;;;6232986;22;20448;-85
2022/06/17 00:49:02;;;;;;;5.50;4.87;;;18.80;99.90;;;;;;6171774;23;20776;-85
2022/06/17 00:51:44;;;;;;;;;;;;;;;;;;;;;
2022/06/17 00:54:28;;;;;;;4.87;4.30;;;18.70;99.90;;;;;;6211877;23;20428;-85
2022/06/17 00:56:57;;;;;;;5.70;4.43;;;18.70;99.90;;;;;;6263569;22;20491;-84
2022/06/17 00:59:25;;;;;;;6.83;4.77;;;18.70;99.90;;;;;;6242594;22;20372;-84
2022/06/17 01:02:03;;;;;;;5.13;4.63;;;18.70;99.90;;;;;;6241999;22;20376;-85
2022/06/17 01:04:43;;;;;;;6.30;5.33;;;18.70;99.90;;;;;;6242939;22;20357;-85
2022/06/17 01:07:32;;;;;;;7.27;4.70;;;18.70;99.90;;;;;;6217386;23;20398;-85
2022/06/17 01:10:22;;;;;;;6.43;4.80;;;18.70;99.90;;;;;;6242895;22;20503;-85
2022/06/17 01:13:27;;;;;;;;;;;;;;;;;;;;;
2022/06/17 01:15:55;;;;;;;6.73;5.37;;;18.60;99.90;;;;;;6229763;22;20953;-84
2022/06/17 01:18:49;;;;;;;10.60;5.70;;;18.60;99.90;;;;;;6244253;23;20419;-85
2022/06/17 01:21:39;;;;;;;6.07;5.10;;;18.60;99.90;;;;;;6245286;22;20394;-85
2022/06/17 01:24:21;;;;;;;;;;;;;;;;;;;;;
2022/06/17 01:27:20;;;;;;;;;;;;;;;;;;;;;
2022/06/17 01:33:09;;;;;;;;;;;;;;;;;;;;;
2022/06/17 01:35:58;;;;;;;6.90;6.30;;;18.30;99.90;;;;;;6238816;22;20945;-85
2022/06/17 01:38:53;;;;;;;10.33;7.60;;;18.30;99.90;;;;;;6242982;23;20474;-85
2022/06/17 01:41:40;;;;;;;;;;;;;;;;;;;;;
2022/06/17 01:44:33;;;;;;;9.70;7.70;;;18.20;99.90;;;;;;6243660;23;20442;-86
2022/06/17 01:47:11;;;;;;;7.03;6.37;;;18.20;99.90;;;;;;6234549;22;20435;-85
2022/06/17 01:50:01;;;;;;;;;;;;;;;;;;;;;
2022/06/17 01:52:43;;;;;;;11.13;7.17;;;18.20;99.90;;;;;;6244934;23;20480;-85
2022/06/17 01:55:13;;;;;;;11.07;7.67;;;18.20;99.90;;;;;;6242824;22;20741;-84
2022/06/17 01:57:52;;;;;;;9.77;7.33;;;18.20;99.90;;;;;;6260932;22;20404;-84
2022/06/17 02:00:45;;;;;;;;;;;;;;;;;;;;;
2022/06/17 02:03:41;;;;;;;11.37;7.47;;;18.10;99.90;;;;;;6245724;23;20431;-85
2022/06/17 02:06:23;;;;;;;8.03;6.40;;;18.10;99.90;;;;;;6242095;22;20406;-85
2022/06/17 02:08:49;;;;;;;8.53;6.70;;;18.00;99.90;;;;;;6242833;23;20380;-85
2022/06/17 02:11:18;;;;;;;10.17;5.97;;;18.00;99.90;;;;;;6244469;22;20376;-85
2022/06/17 02:13:47;;;;;;;9.83;5.83;;;18.00;99.90;;;;;;6243614;23;20460;-85
2022/06/17 02:16:23;;;;;;;8.73;5.80;;;18.00;99.90;;;;;;6243473;22;20774;-84
2022/06/17 02:19:12;;;;;;;5.63;5.13;;;18.00;99.90;;;;;;6244425;22;21366;-85
2022/06/17 02:21:58;;;;;;;8.63;6.67;;;18.00;99.90;;;;;;6244345;22;20376;-85
2022/06/17 02:24:28;;;;;;;10.70;5.80;;;18.00;99.90;;;;;;6243083;23;20498;-85
2022/06/17 02:26:54;;;;;;;9.77;5.27;;;17.90;99.90;;;;;;6243676;22;20416;-84
2022/06/17 02:29:21;;;;;;;7.30;5.83;;;17.90;99.90;;;;;;6243474;22;20375;-85
2022/06/17 02:31:47;;;;;;;6.33;5.73;;;17.80;99.90;;;;;;6245000;22;20377;-85
2022/06/17 02:34:19;;;;;;;6.37;5.67;;;17.70;99.90;;;;;;6243777;23;20364;-85
2022/06/17 02:36:54;;;;;;;6.90;5.23;;;17.60;99.90;;;;;;6244215;22;20430;-85
2022/06/17 02:39:20;;;;;;;7.53;5.50;;;17.50;99.90;;;;;;6242979;22;20367;-85
2022/06/17 02:41:48;;;;;;;10.43;5.43;;;17.50;99.90;;;;;;6243868;22;20374;-85
2022/06/17 02:44:26;;;;;;;7.07;5.27;;;17.50;99.90;;;;;;6241345;23;20388;-85
2022/06/17 02:47:06;;;;;;;;;;;;;;;;;;;;;
2022/06/17 02:49:42;;;;;;;8.63;5.87;;;17.50;99.90;;;;;;6244368;23;20451;-85
2022/06/17 02:52:15;;;;;;;8.33;4.90;;;17.50;99.90;;;;;;6243629;23;20390;-84
2022/06/17 02:54:54;;;;;;;9.47;5.90;;;17.50;99.90;;;;;;6243592;22;20841;-84
2022/06/17 02:57:25;;;;;;;7.63;5.77;;;17.40;99.90;;;;;;6241689;23;21218;-84
2022/06/17 03:00:19;;;;;;;8.63;5.83;;;17.40;99.90;;;;;;6220930;23;20391;-85
2022/06/17 03:02:51;;;;;;;9.13;6.10;;;17.40;99.90;;;;;;6243854;22;20724;-85
2022/06/17 03:05:28;;;;;;;9.17;5.67;;;17.40;99.90;;;;;;6242664;22;20408;-85
2022/06/17 03:08:13;;;;;;;6.80;5.67;;;17.40;99.90;;;;;;6242005;23;20422;-85
2022/06/17 03:10:43;;;;;;;5.90;5.30;;;17.40;99.90;;;;;;6242300;23;20390;-85
2022/06/17 03:13:16;;;;;;;10.80;6.53;;;17.40;99.90;;;;;;6242162;23;20842;-85
2022/06/17 03:15:54;;;;;;;6.60;5.53;;;17.40;99.90;;;;;;6242073;22;20493;-86
2022/06/17 03:18:22;;;;;;;6.93;5.27;;;17.40;99.90;;;;;;6243932;22;20648;-85
2022/06/17 03:20:51;;;;;;;5.80;5.07;;;17.40;99.90;;;;;;6241885;23;20629;-85
2022/06/17 03:23:33;;;;;;;7.67;5.97;;;17.50;99.90;;;;;;6243600;22;20441;-85
2022/06/17 03:26:06;;;;;;;8.57;6.30;;;17.40;99.90;;;;;;6242390;22;20404;-85
2022/06/17 03:28:51;;;;;;;7.40;6.47;;;17.40;99.90;;;;;;6243102;22;20378;-85
2022/06/17 03:31:43;;;;;;;6.77;6.10;;;17.40;99.90;;;;;;6243204;22;20418;-85
2022/06/17 03:34:36;;;;;;;7.80;6.30;;;17.40;99.90;;;;;;6241883;23;20848;-85
2022/06/17 03:37:16;;;;;;;8.70;7.43;;;17.30;99.90;;;;;;6242497;22;20430;-85
2022/06/17 03:39:50;;;;;;;6.90;5.90;;;17.30;99.90;;;;;;6243278;22;20690;-85
2022/06/17 03:42:44;;;;;;;7.07;6.40;;;17.30;99.90;;;;;;6241852;23;20474;-85
2022/06/17 03:45:26;;;;;;;7.30;5.90;;;17.30;99.90;;;;;;6227264;22;20510;-85
2022/06/17 03:48:04;;;;;;;9.40;6.10;;;17.30;99.90;;;;;;6243059;23;20363;-86
2022/06/17 03:50:36;;;;;;;10.30;6.47;;;17.30;99.90;;;;;;6243161;23;20433;-85
2022/06/17 03:53:15;;;;;;;8.20;6.33;;;17.40;99.90;;;;;;6191870;23;20449;-85
2022/06/17 03:56:15;;;;;;;12.90;6.20;;;17.40;99.90;;;;;;6242994;22;20486;-85
2022/06/17 03:58:57;;;;;;;;;;;;;;;;;;;;;
2022/06/17 04:01:58;;;;;;;;;;;;;;;;;;;;;
2022/06/17 04:04:31;;;;;;;9.70;6.27;;;17.70;99.90;;;;;;6242339;23;20791;-85
2022/06/17 04:06:57;;;;;;;6.13;5.40;;;17.80;99.90;;;;;;6243009;22;20486;-85
2022/06/17 04:09:32;;;;;;;14.03;5.67;;;17.70;99.90;;;;;;6216705;23;20916;-85
2022/06/17 04:12:19;;;;;;;12.63;5.50;;;17.60;99.90;;;;;;6243356;23;20379;-85
2022/06/17 04:15:16;;;;;;;14.43;6.20;;;17.50;99.90;;;;;;6243148;22;20359;-85
2022/06/17 04:17:54;;;;;;;;;;;;;;;;;;;;;
2022/06/17 04:20:39;;;;;;;16.40;6.00;;;17.60;99.90;;;;;;6242983;23;20446;-85
2022/06/17 04:23:17;;;;;;;11.10;6.57;;;17.60;99.90;;;;;;6216084;23;20407;-85
2022/06/17 04:26:08;;;;;;;;;;;;;;;;;;;;;
2022/06/17 04:29:06;;;;;;;;;;;;;;;;;;;;;
2022/06/17 04:31:51;;;;;;;;;;;;;;;;;;;;;
2022/06/17 04:34:43;;;;;;;;;;;;;;;;;;;;;
2022/06/17 04:37:32;;;;;;;16.13;6.53;;;18.10;99.90;;;;;;6242622;22;20523;-85
2022/06/17 04:40:24;;;;;;;;;;;;;;;;;;;;;
2022/06/17 04:42:55;;;;;;;17.30;7.17;;;18.40;99.90;;;;;;6243167;23;20434;-86
2022/06/17 04:45:30;;;;;;;19.77;6.40;;;18.70;99.90;;;;;;6241828;22;20439;-85
2022/06/17 04:47:58;;;;;;;12.33;7.03;;;18.90;99.90;;;;;;6242996;23;20359;-85
2022/06/17 04:50:30;;;;;;;22.73;6.80;;;19.10;99.90;;;;;;6242160;23;20396;-85
2022/06/17 04:52:56;;;;;;;15.43;8.03;;;19.30;99.90;;;;;;6244704;23;20352;-85
2022/06/17 04:55:34;;;;;;;12.67;6.23;;;19.60;99.90;;;;;;6245074;22;20396;-85
2022/06/17 04:58:31;;;;;;;14.70;6.17;;;19.80;99.90;;;;;;6244526;23;20215;-85
2022/06/17 05:01:00;;;;;;;16.03;7.07;;;20.00;99.90;;;;;;6219370;23;20416;-85
2022/06/17 05:03:33;;;;;;;14.07;5.87;;;20.10;99.90;;;;;;6245808;23;20373;-85
2022/06/17 05:06:08;;;;;;;;;;;;;;;;;;;;;
2022/06/17 05:08:59;;;;;;;8.73;5.60;;;20.40;99.90;;;;;;6245333;23;20448;-85
2022/06/17 05:11:39;;;;;;;12.37;6.13;;;20.50;99.90;;;;;;6246418;23;20366;-85
2022/06/17 05:14:18;;;;;;;14.17;6.37;;;20.70;99.90;;;;;;6219063;23;20390;-85
2022/06/17 05:16:48;;;;;;;8.97;6.67;;;20.80;99.90;;;;;;6243983;22;20421;-85
2022/06/17 05:19:20;;;;;;;10.10;6.40;;;20.90;99.90;;;;;;6244546;23;20396;-86
2022/06/17 05:22:09;;;;;;;12.93;6.47;;;21.00;99.90;;;;;;6219140;23;20382;-85
2022/06/17 05:24:48;;;;;;;7.37;5.97;;;21.10;99.90;;;;;;6245366;23;20829;-86
2022/06/17 05:27:31;;;;;;;;;;;;;;;;;;;;;
2022/06/17 05:30:05;;;;;;;18.47;6.70;;;21.40;99.90;;;;;;6260726;23;20387;-85
2022/06/17 05:33:05;;;;;;;19.03;6.17;;;21.50;99.90;;;;;;6262768;23;20359;-85
2022/06/17 05:35:29;;;;;;;22.90;6.90;;;21.50;99.90;;;;;;6244826;22;20788;-84
2022/06/17 05:37:55;;;;;;;24.27;7.13;;;21.70;99.90;;;;;;6217618;23;20489;-84
2022/06/17 05:40:21;;;;;;;26.40;6.80;;;21.80;99.90;;;;;;6243424;23;20718;-84
2022/06/17 05:42:50;;;;;;;26.37;7.20;;;21.90;99.90;;;;;;6217447;23;20153;-84
2022/06/17 05:45:25;;;;;;;15.60;6.97;;;21.80;99.90;;;;;;6216806;23;20422;-84
2022/06/17 05:47:53;;;;;;;20.03;6.60;;;21.90;99.90;;;;;;6242535;23;20387;-84
2022/06/17 05:50:20;;;;;;;17.90;6.17;;;22.00;99.90;;;;;;6244028;23;20709;-84
2022/06/17 05:52:58;;;;;;;18.40;6.30;;;22.20;99.90;;;;;;6244708;22;20385;-84
2022/06/17 05:55:25;;;;;;;20.27;6.50;;;22.60;99.90;;;;;;6243074;22;20463;-84
2022/06/17 05:57:51;;;;;;;14.30;6.13;;;22.90;99.90;;;;;;6244739;22;20418;-84
2022/06/17 06:00:17;;;;;;;12.57;6.07;;;23.00;99.90;;;;;;6244723;23;20386;-84
2022/06/17 06:02:43;;;;;;;9.83;5.97;;;23.20;99.90;;;;;;6244625;22;20179;-84
2022/06/17 06:05:16;;;;;;;11.73;5.23;;;23.20;99.90;;;;;;6248941;22;20417;-84
2022/06/17 06:07:41;;;;;;;13.03;4.90;;;23.40;99.90;;;;;;6245576;22;20403;-84
2022/06/17 06:10:08;;;;;;;14.33;4.97;;;23.80;99.90;;;;;;6243412;23;20894;-84
2022/06/17 06:15:19;;;;;;;8.40;4.53;;;24.80;99.90;;;;;;6245000;22;20947;-84
2022/06/17 06:17:45;;;;;;;7.60;4.33;;;26.80;99.90;;;;;;6243372;23;20384;-84
2022/06/17 06:20:12;;;;;;;9.00;3.87;;;30.20;99.90;;;;;;6244301;22;20387;-85
2022/06/17 06:22:38;;;;;;;10.30;4.20;;;31.60;99.90;;;;;;6244604;22;20380;-86
2022/06/17 06:25:04;;;;;;;9.70;4.20;;;32.60;99.90;;;;;;6244426;22;21046;-84
2022/06/17 06:27:35;;;;;;;9.77;4.33;;;32.00;99.90;;;;;;6243600;22;20181;-85
2022/06/17 06:30:04;;;;;;;8.33;3.77;;;33.50;99.90;;;;;;6243632;22;20372;-85
2022/06/17 06:32:32;;;;;;;4.43;3.00;;;34.40;99.90;;;;;;6244639;22;20372;-85
2022/06/17 06:34:58;;;;;;;12.57;3.30;;;35.60;99.90;;;;;;6242324;22;20463;-85
2022/06/17 06:37:26;;;;;;;10.60;3.47;;;34.40;99.90;;;;;;6244738;23;20411;-84
2022/06/17 06:39:52;;;;;;;16.03;4.00;;;34.30;99.90;;;;;;6244099;23;20580;-84
2022/06/17 06:42:19;;;;;;;6.90;2.67;;;37.10;99.90;;;;;;6242661;23;20415;-85
2022/06/17 06:44:49;;;;;;;7.80;2.77;;;41.50;99.90;;;;;;6243274;23;20832;-85
2022/06/17 07:40:51;;;;;;;5.40;2.13;;;36.50;47.60;;;;;;6219409;23;20460;-82
2022/06/17 07:47:09;;;;;;;5.20;2.27;;;38.60;57.20;;;;;;6219187;23;20233;-82
2022/06/17 08:49:16;;;;;;;;;;;;;;;;;;;;;
2022/06/17 08:55:16;;;;;;;5.10;1.87;;;48.30;44.70;;;;;;6000456;23;20390;-81
2022/06/17 08:57:57;;;;;;;8.77;2.47;;;47.90;41.80;;;;;;6060002;23;20753;-80
2022/06/17 09:00:38;;;;;;;4.43;1.90;;;48.10;41.80;;;;;;6092222;23;20407;-81
2022/06/17 09:03:26;;;;;;;4.60;2.03;;;48.40;41.50;;;;;;6163445;23;20372;-81
2022/06/17 09:06:20;;;;;;;4.50;2.00;;;48.90;42.10;;;;;;6189511;23;20399;-80
2022/06/17 09:09:03;;;;;;;3.13;1.57;;;49.30;41.90;;;;;;6162712;23;20419;-80
2022/06/17 09:11:59;;;;;;;2.90;1.80;;;49.70;41.50;;;;;;6163558;23;20384;-80
2022/06/17 09:14:37;;;;;;;4.63;1.90;;;50.00;41.40;;;;;;6163223;23;20388;-80
2022/06/17 09:17:34;;;;;;;7.30;1.87;;;50.20;40.50;;;;;;6189599;23;20405;-80
2022/06/17 09:20:07;;;;;;;4.63;2.33;;;50.50;40.90;;;;;;6163589;23;20376;-82
2022/06/17 09:22:38;;;;;;;6.37;2.00;;;50.20;39.40;;;;;;6163486;23;20423;-82
2022/06/17 09:25:14;;;;;;;13.23;2.20;;;50.20;38.40;;;;;;6189840;23;20393;-80
2022/06/17 09:27:44;;;;;;;7.70;2.53;;;50.70;39.10;;;;;;6189221;23;20503;-82
2022/06/17 09:30:15;;;;;;;3.77;1.97;;;50.90;39.20;;;;;;6189738;23;20457;-82
2022/06/17 09:32:49;;;;;;;2.90;1.70;;;51.30;39.30;;;;;;6189650;23;20688;-80
2022/06/17 09:35:26;;;;;;;1.97;1.40;;;51.20;37.60;;;;;;6200042;23;20387;-83
2022/06/17 09:37:55;;;;;;;3.73;1.57;;;49.70;34.20;;;;;;6193200;23;20534;-82
2022/06/17 09:40:35;;;;;;;2.60;1.70;;;49.50;32.80;;;;;;6220269;23;20868;-82
2022/06/17 09:43:23;;;;;;;6.10;2.00;;;48.00;29.40;;;;;;6223604;23;20886;-81
2022/06/17 09:45:53;;;;;;;5.20;1.87;;;47.80;28.90;;;;;;6221688;23;20396;-81
2022/06/17 09:48:46;;;;;;;3.80;1.90;;;47.00;26.80;;;;;;6194077;23;20451;-82
2022/06/17 09:51:16;;;;;;;4.93;2.00;;;47.10;27.20;;;;;;6220430;23;20365;-82
2022/06/17 09:53:50;;;;;;;6.07;1.93;;;46.60;26.30;;;;;;6193922;23;20385;-82
2022/06/17 09:56:38;;;;;;;4.83;1.70;;;46.50;26.50;;;;;;6221038;23;20388;-82
2022/06/17 09:59:12;;;;;;;4.93;1.60;;;46.70;27.60;;;;;;6220140;23;20365;-83
2022/06/17 10:01:40;;;;;;;7.07;1.77;;;46.30;27.00;;;;;;6220968;23;20438;-82
2022/06/17 10:04:09;;;;;;;10.03;2.10;;;46.60;27.80;;;;;;6192154;23;20483;-82
2022/06/17 10:06:38;;;;;;;4.45;2.05;;;46.70;28.30;;;;;;6219499;23;20447;-82
2022/06/17 10:09:30;;;;;;;3.53;1.53;;;46.90;28.40;;;;;;6193251;23;20389;-81
2022/06/17 10:12:02;;;;;;;8.33;2.17;;;47.30;28.90;;;;;;6219771;23;20361;-83
2022/06/17 10:14:50;;;;;;;2.80;1.60;;;47.20;28.90;;;;;;6219794;23;20755;-84
2022/06/17 10:20:41;;;;;;;4.63;1.83;;;47.90;29.60;;;;;;6219677;23;20431;-82
2022/06/17 10:23:12;;;;;;;3.33;1.53;;;48.10;29.80;;;;;;6193851;23;20371;-83
2022/06/17 10:26:05;;;;;;;2.43;1.70;;;48.60;30.30;;;;;;6193696;23;20710;-82
2022/06/17 10:28:34;;;;;;;2.97;1.30;;;48.30;29.30;;;;;;6193992;23;20417;-81
2022/06/17 10:31:37;;;;;;;2.43;1.60;;;48.20;28.90;;;;;;6190744;23;20389;-80
2022/06/17 10:34:14;;;;;;;5.43;1.90;;;48.00;27.70;;;;;;6191526;23;20446;-84
2022/06/17 10:36:50;;;;;;;2.40;1.53;;;46.80;25.50;;;;;;6190597;23;20423;-84
2022/06/17 10:39:24;;;;;;;2.03;1.53;;;46.70;26.20;;;;;;6218645;23;20449;-81
2022/06/17 10:41:50;;;;;;;3.63;1.50;;;46.90;25.90;;;;;;6218825;23;20415;-82
2022/06/17 10:44:39;;;;;;;2.33;1.30;;;47.50;28.00;;;;;;6218842;23;20902;-82
2022/06/17 10:47:42;;;;;;;2.90;1.30;;;48.10;28.60;;;;;;6191851;23;20463;-83
2022/06/17 10:50:22;;;;;;;2.03;1.43;;;48.40;28.70;;;;;;6194125;23;20442;-82
2022/06/17 10:53:04;;;;;;;;;;;;;;;;;;;;;
2022/06/17 10:58:19;;;;;;;4.70;1.47;;;46.50;24.60;;;;;;6250472;23;20420;-82
2022/06/17 11:01:16;;;;;;;1.83;1.30;;;45.50;23.10;;;;;;6223964;23;20874;-82
2022/06/17 11:04:06;;;;;;;3.40;1.50;;;44.70;22.30;;;;;;6251083;23;20368;-83
2022/06/17 11:06:51;;;;;;;2.67;1.63;;;45.10;31.20;;;;;;6249689;23;20935;-83
2022/06/17 11:09:54;;;;;;;4.50;1.70;;;45.80;25.10;;;;;;6252000;23;20691;-82
2022/06/17 11:12:35;;;;;;;;;;;;;;;;;;;;;
2022/06/17 11:15:05;;;;;;;4.13;1.53;;;46.00;25.60;;;;;;6254220;23;20388;-82
2022/06/17 11:17:44;;;;;;;2.17;1.40;;;46.20;25.70;;;;;;6255187;22;20388;-82
2022/06/17 11:20:15;;;;;;;4.50;1.57;;;45.20;23.90;;;;;;6255705;23;20352;-82
2022/06/17 11:22:53;;;;;;;1.93;1.30;;;44.20;22.20;;;;;;6254212;23;20760;-82
2022/06/17 11:25:35;;;;;;;3.73;1.80;;;43.40;20.90;;;;;;6227361;22;20471;-82
2022/06/17 11:28:33;;;;;;;3.10;1.70;;;43.30;22.10;;;;;;6226005;23;20493;-84
2022/06/17 11:31:02;;;;;;;1.97;1.70;;;42.60;20.80;;;;;;6253509;23;20368;-83
2022/06/17 11:33:34;;;;;;;4.53;1.50;;;42.80;21.80;;;;;;6254700;23;20689;-83
2022/06/17 11:36:09;;;;;;;2.27;1.67;;;43.70;24.40;;;;;;6227019;23;20403;-81
2022/06/17 11:38:35;;;;;;;3.10;1.60;;;44.20;25.20;;;;;;6228010;23;20375;-81
2022/06/17 11:41:01;;;;;;;7.50;1.50;;;44.20;24.70;;;;;;6249572;23;20371;-82
2022/06/17 11:43:43;;;;;;;2.17;1.30;;;44.20;25.10;;;;;;6249343;23;20435;-81
2022/06/17 11:46:18;;;;;;;7.33;1.60;;;44.00;24.90;;;;;;6220802;23;20418;-82
2022/06/17 11:48:58;;;;;;;3.90;1.50;;;44.10;24.80;;;;;;6248717;23;20414;-84
2022/06/17 11:51:33;;;;;;;2.60;1.40;;;44.60;25.30;;;;;;6248239;23;20707;-80
2022/06/17 11:54:09;;;;;;;1.53;1.37;;;45.00;25.70;;;;;;6246270;23;20383;-79
2022/06/17 11:56:43;;;;;;;4.40;1.60;;;44.90;26.50;;;;;;6219600;23;20443;-81
2022/06/17 11:59:20;;;;;;;6.23;1.73;;;45.00;25.60;;;;;;6246703;23;20868;-80
2022/06/17 12:02:03;;;;;;;2.97;1.47;;;44.60;25.00;;;;;;6221007;23;20381;-81
2022/06/17 12:04:59;;;;;;;1.40;1.07;;;44.70;24.60;;;;;;6247391;23;20368;-81
2022/06/17 12:07:52;;;;;;;2.60;1.53;;;44.80;24.40;;;;;;6246675;22;20446;-81
2022/06/17 12:10:31;;;;;;;3.43;1.20;;;44.80;24.40;;;;;;6244398;23;20363;-79
2022/06/17 12:13:32;;;;;;;1.73;1.27;;;44.60;24.40;;;;;;6224051;23;20376;-80
2022/06/17 12:16:08;;;;;;;4.97;1.30;;;43.60;22.30;;;;;;6208955;23;20404;-81
2022/06/17 12:18:36;;;;;;;2.00;1.40;;;43.50;22.40;;;;;;6252686;23;20362;-83
2022/06/17 12:21:32;;;;;;;2.47;1.50;;;43.80;22.60;;;;;;6252130;23;20917;-80
2022/06/17 12:24:05;;;;;;;4.50;1.50;;;43.70;23.80;;;;;;6252264;23;20364;-81
2022/06/17 12:26:50;;;;;;;1.70;1.50;;;43.80;22.80;;;;;;6225218;23;20506;-81
2022/06/17 12:29:35;;;;;;;3.57;1.77;;;44.00;23.30;;;;;;6249408;23;20384;-81
2022/06/17 12:32:20;;;;;;;2.70;1.50;;;43.90;23.40;;;;;;6223388;23;20419;-79
2022/06/17 12:35:02;;;;;;;2.23;1.50;;;43.90;23.00;;;;;;6224474;23;20383;-81
2022/06/17 12:37:44;;;;;;;3.03;1.60;;;43.90;22.80;;;;;;6249114;22;20400;-81
2022/06/17 12:40:19;;;;;;;2.13;1.27;;;43.60;22.40;;;;;;6251715;23;20429;-81
2022/06/17 12:43:04;;;;;;;1.90;1.40;;;43.50;26.10;;;;;;6220269;23;20379;-80
2022/06/17 12:45:48;;;;;;;1.87;1.50;;;43.00;20.80;;;;;;6246808;22;20360;-84
2022/06/17 12:48:36;;;;;;;3.70;1.50;;;42.40;20.30;;;;;;6244912;23;20885;-81
2022/06/17 12:54:17;;;;;;;1.87;1.13;;;42.10;19.70;;;;;;6246252;23;20360;-81
2022/06/17 12:56:54;;;;;;;1.30;1.20;;;42.00;19.70;;;;;;6218777;23;20819;-84
2022/06/17 12:59:26;;;;;;;2.90;1.40;;;42.10;29.10;;;;;;6218758;23;20380;-79
2022/06/17 13:02:11;;;;;;;2.17;1.10;;;42.10;19.10;;;;;;6219427;23;20387;-81
2022/06/17 13:04:58;;;;;;;1.90;1.00;;;42.00;19.20;;;;;;6218829;23;20456;-80
2022/06/17 13:07:31;;;;;;;2.30;1.20;;;41.80;18.40;;;;;;6244939;22;20882;-81
2022/06/17 13:10:39;;;;;;;2.83;1.27;;;41.80;28.00;;;;;;6246551;23;20414;-84
2022/06/17 13:12:49;;;;;;;2.70;0.97;;;41.60;18.10;;;;;;6247182;23;20487;-80
2022/06/17 13:15:20;;;;;;;1.47;0.90;;;41.40;17.30;;;;;;6247714;23;20379;-81
2022/06/17 13:18:02;;;;;;;2.47;0.90;;;41.10;16.70;;;;;;6222524;23;20394;-81
2022/06/17 13:20:56;;;;;;;3.57;1.20;;;40.90;16.30;;;;;;6221616;23;20854;-80
2022/06/17 13:23:40;;;;;;;2.03;1.40;;;40.50;16.80;;;;;;6220741;23;20383;-81
2022/06/17 13:26:47;;;;;;;3.10;1.47;;;40.20;15.90;;;;;;6220730;23;20495;-80
2022/06/17 13:29:25;;;;;;;1.70;1.00;;;40.20;16.00;;;;;;6125060;23;20391;-81
2022/06/17 13:31:57;;;;;;;2.67;1.03;;;40.10;15.80;;;;;;6232760;23;20386;-79
2022/06/17 13:34:28;;;;;;;2.87;1.10;;;40.10;16.40;;;;;;6248284;23;20490;-80
2022/06/17 13:37:10;;;;;;;2.30;0.90;;;39.70;15.50;;;;;;6248726;22;20396;-81
2022/06/17 13:39:43;;;;;;;1.97;1.13;;;39.60;15.60;;;;;;6250155;23;20360;-81
2022/06/17 13:42:12;;;;;;;3.73;1.20;;;39.50;15.40;;;;;;6249892;23;20360;-81
2022/06/17 13:44:49;;;;;;;2.80;1.30;;;39.30;25.10;;;;;;6222162;23;20416;-81
2022/06/17 13:47:34;;;;;;;5.43;1.20;;;39.20;15.30;;;;;;6248926;22;20415;-81
2022/06/17 13:50:18;;;;;;;2.13;1.03;;;39.10;15.70;;;;;;6223133;23;20796;-81
2022/06/17 13:53:01;;;;;;;2.10;1.07;;;38.90;15.70;;;;;;6249813;23;20363;-81
2022/06/17 13:55:51;;;;;;;3.30;1.50;;;38.40;14.30;;;;;;6247806;22;20372;-81
2022/06/17 13:58:50;;;;;;;1.90;1.17;;;38.00;14.10;;;;;;6250173;23;20749;-81
2022/06/17 14:01:22;;;;;;;2.57;1.20;;;37.80;14.40;;;;;;6223088;23;20384;-80
2022/06/17 14:03:53;;;;;;;6.27;1.50;;;37.50;14.60;;;;;;6222770;23;20733;-80
2022/06/17 14:06:20;;;;;;;2.13;1.27;;;37.30;14.80;;;;;;6221859;23;20453;-80
2022/06/17 14:08:53;;;;;;;2.30;1.20;;;37.20;15.20;;;;;;6249276;23;20787;-82
2022/06/17 14:11:32;;;;;;;6.60;1.47;;;37.10;14.60;;;;;;6249730;23;20395;-81
2022/06/17 14:14:19;;;;;;;1.40;1.17;;;37.00;15.30;;;;;;6249333;23;20355;-81
2022/06/17 14:17:11;;;;;;;3.13;1.33;;;36.90;15.50;;;;;;6247728;22;20407;-81
2022/06/17 14:19:42;;;;;;;1.83;1.17;;;36.80;15.50;;;;;;6206733;23;20395;-81
2022/06/17 14:22:16;;;;;;;1.70;1.13;;;36.80;15.90;;;;;;6248580;23;20353;-80
2022/06/17 14:24:44;;;;;;;1.50;1.20;;;36.80;25.10;;;;;;6221621;23;20411;-80
2022/06/17 14:27:12;;;;;;;1.93;1.20;;;36.60;16.10;;;;;;6249075;22;20408;-81
2022/06/17 14:29:38;;;;;;;2.90;1.27;;;36.60;25.80;;;;;;6222859;23;20463;-83
2022/06/17 14:32:38;;;;;;;1.60;1.27;;;36.60;15.60;;;;;;6249843;23;20376;-83
2022/06/17 14:35:05;;;;;;;2.90;1.10;;;36.60;16.20;;;;;;6248823;23;20732;-83
2022/06/17 14:37:36;;;;;;;2.60;1.07;;;36.50;26.00;;;;;;6221914;23;20415;-83
2022/06/17 14:40:24;;;;;;;2.70;1.10;;;36.70;17.10;;;;;;6249478;23;20380;-83
2022/06/17 14:43:15;;;;;;;3.23;1.30;;;36.90;17.70;;;;;;6249487;23;20377;-83
2022/06/17 14:45:48;;;;;;;1.80;1.10;;;36.90;18.40;;;;;;6248860;22;20395;-82
2022/06/17 14:48:17;;;;;;;1.40;1.30;;;36.90;18.60;;;;;;6223825;23;20423;-82
2022/06/17 14:50:47;;;;;;;3.27;1.00;;;36.90;18.20;;;;;;6225664;23;20395;-87
2022/06/17 14:53:13;;;;;;;1.30;0.93;;;36.90;18.70;;;;;;6224608;23;20384;-83
2022/06/17 14:56:00;;;;;;;1.50;1.20;;;36.80;28.30;;;;;;6248373;22;20739;-83
2022/06/17 14:58:46;;;;;;;1.50;1.03;;;36.80;19.20;;;;;;6221608;23;20558;-87
2022/06/17 15:01:18;;;;;;;1.97;1.13;;;36.70;19.10;;;;;;6249391;23;20383;-83
2022/06/17 15:03:46;;;;;;;2.47;1.00;;;36.60;20.00;;;;;;6222983;23;20375;-83
2022/06/17 15:06:11;;;;;;;4.30;1.43;;;36.60;19.20;;;;;;6249184;22;20399;-84
2022/06/17 15:08:46;;;;;;;1.77;1.40;;;36.60;20.10;;;;;;6250331;23;20422;-83
2022/06/17 15:11:19;;;;;;;4.07;1.30;;;36.50;19.80;;;;;;6248935;23;20148;-85
2022/06/17 15:14:13;;;;;;;1.40;1.00;;;36.40;20.30;;;;;;6222466;23;20435;-83
2022/06/17 15:16:49;;;;;;;1.53;1.33;;;36.20;20.50;;;;;;6221571;23;20423;-83
2022/06/17 15:19:23;;;;;;;2.30;1.90;;;36.20;21.40;;;;;;6222547;23;20875;-82
2022/06/17 15:22:02;;;;;;;1.93;1.20;;;36.10;22.10;;;;;;6248572;23;20413;-82
2022/06/17 15:24:41;;;;;;;3.17;1.20;;;36.10;22.30;;;;;;6249152;23;20451;-82
2022/06/17 15:27:24;;;;;;;1.57;1.47;;;36.10;22.50;;;;;;6221271;23;20999;-83
2022/06/17 15:29:58;;;;;;;2.57;1.33;;;36.20;24.20;;;;;;6222237;23;20376;-82
2022/06/17 15:32:25;;;;;;;1.77;1.23;;;36.10;23.30;;;;;;6221757;23;20385;-83
2022/06/17 15:34:51;;;;;;;1.70;1.40;;;36.20;24.20;;;;;;6249435;23;20466;-83
2022/06/17 15:37:30;;;;;;;3.30;1.30;;;36.10;24.50;;;;;;6247478;22;20396;-83
2022/06/17 15:40:47;;;;;;;2.50;1.40;;;36.10;24.70;;;;;;6222929;23;20148;-84
2022/06/17 15:43:20;;;;;;;4.80;1.03;;;36.20;25.40;;;;;;6172959;23;20387;-83
2022/06/17 15:45:46;;;;;;;1.70;1.27;;;36.20;25.90;;;;;;6249276;22;20453;-83
2022/06/17 15:48:28;;;;;;;1.80;1.43;;;36.10;25.30;;;;;;6220895;23;20430;-83
2022/06/17 15:51:02;;;;;;;2.70;1.20;;;36.10;25.40;;;;;;6221822;23;20407;-81
2022/06/17 15:53:38;;;;;;;2.23;1.30;;;36.10;25.30;;;;;;6222095;23;20375;-82
2022/06/17 15:56:13;;;;;;;4.27;1.23;;;36.10;26.30;;;;;;6248763;22;20892;-83
2022/06/17 15:58:42;;;;;;;2.47;1.27;;;36.10;26.40;;;;;;6249049;23;20368;-83
2022/06/17 16:01:13;;;;;;;1.47;0.93;;;35.90;25.70;;;;;;6248343;23;20371;-83
2022/06/17 16:03:49;;;;;;;5.97;0.93;;;35.90;25.40;;;;;;6222154;23;20379;-82
2022/06/17 16:06:31;;;;;;;3.00;1.20;;;35.80;25.50;;;;;;6221707;23;20403;-83
2022/06/17 16:08:58;;;;;;;3.17;1.03;;;35.70;24.70;;;;;;6248404;23;20414;-83
2022/06/17 16:11:35;;;;;;;4.57;1.30;;;35.70;24.30;;;;;;6248604;23;20399;-83
2022/06/17 16:14:23;;;;;;;2.47;1.10;;;35.60;24.30;;;;;;6248228;23;20848;-84
2022/06/17 16:16:51;;;;;;;1.87;1.33;;;35.50;24.50;;;;;;6205552;23;20411;-82
2022/06/17 16:19:23;;;;;;;2.40;1.37;;;35.50;24.60;;;;;;6248678;23;20829;-81
2022/06/17 16:21:57;;;;;;;4.13;1.17;;;35.50;24.50;;;;;;6249145;23;20482;-83